createdAt,value
2022-09-06T00:03:17.735Z,36.90
2022-09-06T00:08:20.694Z,37.10
2022-09-06T00:13:23.658Z,36.90
2022-09-06T00:18:28.124Z,37.00
2022-09-06T00:23:31.438Z,37.10
2022-09-06T00:28:34.395Z,37.20
2022-09-06T00:33:38.779Z,37.30
2022-09-06T00:38:42.217Z,37.50
2022-09-06T00:43:45.391Z,37.60
2022-09-06T00:48:51.884Z,37.60
2022-09-06T00:53:55.133Z,37.80
2022-09-06T00:58:58.357Z,37.80
2022-09-06T01:04:04.054Z,37.80
2022-09-06T01:09:16.981Z,38.10
2022-09-06T01:14:30.252Z,38.40
2022-09-06T01:20:10.521Z,38.50
2022-09-06T01:25:30.848Z,38.70
2022-09-06T01:30:38.849Z,38.70
2022-09-06T01:35:45.632Z,38.60
2022-09-06T01:40:48.530Z,38.60
2022-09-06T01:46:02.816Z,38.60
2022-09-06T01:51:17.332Z,39.10
2022-09-06T01:56:30.233Z,39.30
2022-09-06T02:01:39.487Z,39.20
2022-09-06T02:06:46.035Z,39.30
2022-09-06T02:11:54.185Z,39.20
2022-09-06T02:17:00.157Z,39.30
2022-09-06T02:22:07.227Z,39.60
2022-09-06T02:27:10.519Z,39.70
2022-09-06T02:32:19.116Z,39.60
2022-09-06T02:37:24.154Z,40.10
2022-09-06T02:42:27.952Z,40.00
2022-09-06T02:47:32.210Z,40.20
2022-09-06T02:52:35.201Z,40.30
2022-09-06T02:57:38.139Z,40.20
2022-09-06T03:02:42.412Z,40.20
2022-09-06T03:07:45.540Z,40.40
2022-09-06T03:12:48.924Z,40.20
2022-09-06T03:17:53.178Z,40.20
2022-09-06T03:22:56.201Z,40.50
2022-09-06T03:27:59.128Z,40.50
2022-09-06T03:33:03.474Z,41.30
2022-09-06T03:38:06.643Z,40.70
2022-09-06T03:43:09.548Z,40.60
2022-09-06T03:48:13.943Z,40.80
2022-09-06T03:53:17.968Z,41.10
2022-09-06T03:58:22.274Z,40.90
2022-09-06T04:03:26.584Z,40.90
2022-09-06T04:08:29.637Z,41.10
2022-09-06T04:13:34.588Z,40.90
2022-09-06T04:18:38.977Z,41.00
2022-09-06T04:23:42.101Z,41.30
2022-09-06T04:28:45.303Z,41.20
2022-09-06T04:33:49.571Z,41.40
2022-09-06T04:38:52.665Z,41.50
2022-09-06T04:43:55.592Z,41.30
2022-09-06T04:49:01.390Z,41.30
2022-09-06T04:54:04.539Z,41.50
2022-09-06T04:59:07.472Z,41.30
2022-09-06T05:04:11.808Z,41.40
2022-09-06T05:09:14.868Z,41.60
2022-09-06T05:14:17.797Z,42.20
2022-09-06T05:19:22.097Z,41.60
2022-09-06T05:24:25.016Z,41.80
2022-09-06T05:29:30.585Z,41.70
2022-09-06T05:34:35.096Z,41.90
2022-09-06T05:39:38.081Z,42.30
2022-09-06T05:44:41.575Z,42.20
2022-09-06T05:49:46.219Z,42.20
2022-09-06T05:54:49.144Z,42.30
2022-09-06T05:59:53.479Z,42.20
2022-09-06T06:04:58.288Z,42.20
2022-09-06T06:10:01.212Z,42.70
2022-09-06T06:15:05.669Z,42.80
2022-09-06T06:20:10.839Z,42.90
2022-09-06T06:25:13.748Z,43.40
2022-09-06T06:30:18.559Z,43.50
2022-09-06T06:35:23.006Z,43.30
2022-09-06T06:40:26.005Z,43.80
2022-09-06T06:45:29.029Z,43.70
2022-09-06T06:50:33.329Z,44.00
2022-09-06T06:55:36.259Z,44.30
2022-09-06T07:00:39.236Z,44.20
2022-09-06T07:11:09.928Z,44.60
2022-09-06T07:16:15.171Z,44.70
2022-09-06T07:26:40.800Z,44.70
2022-09-06T07:37:08.060Z,44.40
2022-09-06T07:42:10.977Z,44.40
2022-09-06T07:58:02.795Z,43.70
2022-09-06T08:03:05.716Z,43.30
2022-09-06T08:13:32.850Z,42.90
2022-09-06T08:18:36.795Z,42.70
2022-09-06T08:23:43.090Z,42.40
2022-09-06T08:28:46.084Z,42.60
2022-09-06T08:33:49.007Z,42.40
2022-09-06T08:38:53.266Z,42.10
2022-09-06T08:49:22.711Z,41.70
2022-09-06T08:54:33.278Z,41.90
2022-09-06T08:59:40.003Z,41.50
2022-09-06T09:04:47.143Z,40.70
2022-09-06T09:09:53.112Z,40.60
2022-09-06T09:15:02.868Z,40.40
2022-09-06T09:20:08.312Z,40.10
2022-09-06T09:25:18.779Z,40.30
2022-09-06T09:30:51.605Z,40.10
2022-09-06T09:35:45.280Z,40.80
2022-09-06T09:40:53.472Z,40.70
2022-09-06T09:46:14.954Z,40.10
2022-09-06T09:51:26.970Z,39.90
2022-09-06T09:56:38.615Z,39.50
2022-09-06T10:01:41.544Z,39.60
2022-09-06T10:12:09.220Z,39.40
2022-09-06T10:17:20.632Z,38.90
2022-09-06T10:22:30.308Z,38.20
2022-09-06T10:27:35.892Z,37.80
2022-09-06T10:32:42.801Z,38.20
2022-09-06T10:37:53.118Z,37.90
2022-09-06T10:43:01.332Z,37.50
2022-09-06T10:48:14.592Z,37.60
2022-09-06T10:53:35.695Z,37.30
2022-09-06T11:04:27.974Z,36.70
2022-09-06T11:09:35.438Z,36.60
2022-09-06T11:14:41.525Z,36.70
2022-09-06T11:19:49.939Z,36.50
2022-09-06T11:25:35.851Z,36.00
2022-09-06T11:30:45.215Z,35.80
2022-09-06T11:35:48.298Z,36.10
2022-09-06T11:40:59.453Z,36.30
2022-09-06T11:46:03.816Z,35.80
2022-09-06T11:51:10.867Z,35.80
2022-09-06T11:56:29.224Z,35.80
2022-09-06T12:01:41.950Z,35.10
2022-09-06T12:07:08.985Z,35.00
2022-09-06T12:12:16.345Z,35.10
2022-09-06T12:17:22.265Z,35.20
2022-09-06T12:23:01.968Z,34.80
2022-09-06T12:28:06.466Z,34.60
2022-09-06T12:33:18.351Z,34.60
2022-09-06T12:38:25.065Z,33.20
2022-09-06T12:43:28.310Z,33.50
2022-09-06T12:48:35.286Z,33.50
2022-09-06T12:53:38.311Z,33.00
2022-09-06T12:58:41.871Z,33.20
2022-09-06T13:03:53.967Z,33.30
2022-09-06T13:08:59.508Z,32.80
2022-09-06T13:14:14.006Z,32.60
2022-09-06T13:19:30.086Z,32.40
2022-09-06T13:24:46.811Z,32.00
2022-09-06T13:29:56.696Z,31.40
2022-09-06T13:35:01.935Z,31.40
2022-09-06T13:41:06.710Z,31.20
2022-09-06T13:46:09.398Z,31.00
2022-09-06T13:51:13.773Z,30.50
2022-09-06T13:56:16.930Z,30.40
2022-09-06T14:01:19.923Z,30.30
2022-09-06T14:06:24.390Z,30.60
2022-09-06T14:11:27.536Z,30.20
2022-09-06T14:16:30.789Z,30.00
2022-09-06T14:21:35.074Z,29.90
2022-09-06T14:26:38.638Z,29.90
2022-09-06T14:31:41.944Z,29.70
2022-09-06T14:36:46.288Z,29.60
2022-09-06T14:41:49.632Z,29.70
2022-09-06T14:46:53.474Z,29.80
2022-09-06T14:51:58.004Z,29.80
2022-09-06T14:57:00.978Z,29.80
2022-09-06T15:02:04.370Z,29.60
2022-09-06T15:07:08.812Z,29.70
2022-09-06T15:12:11.731Z,29.70
2022-09-06T15:17:14.652Z,29.90
2022-09-06T15:22:56.338Z,29.90
2022-09-06T15:28:45.549Z,30.90
2022-09-06T15:33:49.619Z,30.90
2022-09-06T15:38:56.306Z,31.20
2022-09-06T15:44:00.863Z,32.00
2022-09-06T15:49:08.213Z,31.90
2022-09-06T15:54:14.004Z,33.60
2022-09-06T15:59:16.982Z,34.30
2022-09-06T16:04:19.891Z,34.60
2022-09-06T16:09:24.612Z,34.60
2022-09-06T16:14:28.104Z,35.10
2022-09-06T16:19:31.019Z,35.00
2022-09-06T16:24:35.329Z,35.30
2022-09-06T16:29:38.356Z,35.70
2022-09-06T16:34:41.319Z,35.50
2022-09-06T16:39:45.693Z,35.90
2022-09-06T16:44:48.832Z,36.60
2022-09-06T16:49:51.808Z,36.50
2022-09-06T16:54:56.197Z,37.10
2022-09-06T16:59:59.105Z,36.70
2022-09-06T17:05:03.216Z,37.00
2022-09-06T17:10:08.231Z,37.20
2022-09-06T17:15:11.772Z,37.80
2022-09-06T17:20:17.984Z,37.70
2022-09-06T17:25:22.246Z,37.60
2022-09-06T17:30:26.645Z,38.20
2022-09-06T17:35:30.088Z,38.00
2022-09-06T17:40:34.443Z,37.90
2022-09-06T17:45:38.470Z,38.20
2022-09-06T17:50:41.474Z,38.40
2022-09-06T17:55:45.818Z,38.30
2022-09-06T18:00:48.792Z,38.80
2022-09-06T18:05:51.873Z,37.90
2022-09-06T18:10:56.159Z,37.80
2022-09-06T18:16:01.650Z,37.50
2022-09-06T18:21:06.060Z,37.40
2022-09-06T18:26:10.542Z,37.70
2022-09-06T18:31:15.765Z,38.00
2022-09-06T18:36:19.691Z,38.10
2022-09-06T18:41:41.648Z,38.30
2022-09-06T18:46:44.761Z,38.30
2022-09-06T18:51:47.679Z,38.20
2022-09-06T18:56:51.957Z,38.10
2022-09-06T19:01:55.340Z,38.30
2022-09-06T19:06:58.530Z,38.20
2022-09-06T19:12:04.775Z,38.30
2022-09-06T19:17:07.734Z,38.30
2022-09-06T19:22:10.686Z,38.30
2022-09-06T19:27:15.300Z,38.30
2022-09-06T19:32:22.197Z,38.30
2022-09-06T19:37:25.259Z,38.20
2022-09-06T19:42:29.970Z,38.00
2022-09-06T19:47:32.882Z,38.30
2022-09-06T19:52:35.824Z,38.20
2022-09-06T19:57:40.107Z,38.40
2022-09-06T20:02:43.081Z,38.70
2022-09-06T20:07:46.044Z,38.50
2022-09-06T20:12:50.334Z,38.60
2022-09-06T20:17:53.345Z,38.90
2022-09-06T20:22:56.320Z,38.70
2022-09-06T20:28:00.607Z,38.80
2022-09-06T20:33:03.748Z,39.20
2022-09-06T20:38:06.708Z,39.90
2022-09-06T20:43:11.108Z,39.30
2022-09-06T20:48:14.019Z,39.40
2022-09-06T20:53:16.920Z,39.50
2022-09-06T20:58:21.205Z,39.70
2022-09-06T21:03:24.921Z,40.10
2022-09-06T21:08:29.774Z,40.10
2022-09-06T21:13:38.248Z,40.20
2022-09-06T21:18:42.243Z,40.50
2022-09-06T21:23:45.235Z,40.40
2022-09-06T21:28:50.472Z,40.40
2022-09-06T21:33:54.984Z,40.80
2022-09-06T21:39:00.105Z,40.70
2022-09-06T21:44:06.676Z,40.70
2022-09-06T21:49:11.806Z,40.90
2022-09-06T21:54:14.728Z,40.80
2022-09-06T21:59:19.250Z,40.90
2022-09-06T22:04:23.125Z,41.30
2022-09-06T22:09:26.593Z,41.20
2022-09-06T22:14:30.945Z,41.40
2022-09-06T22:19:33.872Z,41.70
2022-09-06T22:24:36.792Z,41.60
2022-09-06T22:29:41.342Z,41.60
2022-09-06T22:34:44.395Z,41.80
2022-09-06T22:39:48.065Z,41.80
2022-09-06T22:44:53.264Z,42.00
2022-09-06T22:49:56.408Z,42.10
2022-09-06T22:54:59.328Z,42.20
2022-09-06T23:00:05.521Z,42.20
2022-09-06T23:05:09.089Z,42.50
2022-09-06T23:10:12.709Z,42.40
2022-09-06T23:15:17.634Z,42.40
2022-09-06T23:20:20.569Z,42.60
2022-09-06T23:25:23.673Z,42.40
2022-09-06T23:30:27.993Z,42.40
2022-09-06T23:35:30.953Z,42.70
2022-09-06T23:40:33.874Z,42.50
2022-09-06T23:45:38.155Z,42.60
2022-09-06T23:50:41.119Z,42.90
2022-09-06T23:55:44.464Z,42.90
